sensor_id;sensor_type;location;lat;lon;timestamp;temperature;humidity
18252;DHT22;26917;52.328;20.878;2022-09-13T00:00:07;7.70;99.90
18252;DHT22;26917;52.328;20.878;2022-09-13T00:02:36;7.60;99.90
18252;DHT22;26917;52.328;20.878;2022-09-13T00:05:05;7.50;99.90
18252;DHT22;26917;52.328;20.878;2022-09-13T00:07:36;7.50;99.90
18252;DHT22;26917;52.328;20.878;2022-09-13T00:10:09;7.40;99.90
18252;DHT22;26917;52.328;20.878;2022-09-13T00:12:46;7.30;99.90
18252;DHT22;26917;52.328;20.878;2022-09-13T00:15:35;7.30;99.90
18252;DHT22;26917;52.328;20.878;2022-09-13T00:18:05;7.30;99.90
18252;DHT22;26917;52.328;20.878;2022-09-13T00:20:33;7.40;99.90
18252;DHT22;26917;52.328;20.878;2022-09-13T00:23:07;7.30;99.90
18252;DHT22;26917;52.328;20.878;2022-09-13T00:25:37;7.40;99.90
18252;DHT22;26917;52.328;20.878;2022-09-13T00:28:08;7.30;99.90
18252;DHT22;26917;52.328;20.878;2022-09-13T00:30:40;7.20;99.90
18252;DHT22;26917;52.328;20.878;2022-09-13T00:33:12;7.20;99.90
18252;DHT22;26917;52.328;20.878;2022-09-13T00:35:42;7.30;99.90
18252;DHT22;26917;52.328;20.878;2022-09-13T00:38:16;7.20;99.90
18252;DHT22;26917;52.328;20.878;2022-09-13T00:40:45;7.30;99.90
18252;DHT22;26917;52.328;20.878;2022-09-13T00:46:07;7.30;99.90
18252;DHT22;26917;52.328;20.878;2022-09-13T00:48:39;7.20;99.90
18252;DHT22;26917;52.328;20.878;2022-09-13T00:51:45;7.20;99.90
18252;DHT22;26917;52.328;20.878;2022-09-13T00:55:02;7.20;99.90
18252;DHT22;26917;52.328;20.878;2022-09-13T00:57:45;7.30;99.90
18252;DHT22;26917;52.328;20.878;2022-09-13T01:00:23;7.20;99.90
18252;DHT22;26917;52.328;20.878;2022-09-13T01:02:55;7.20;99.90
18252;DHT22;26917;52.328;20.878;2022-09-13T01:05:37;7.30;99.90
18252;DHT22;26917;52.328;20.878;2022-09-13T01:08:23;7.30;99.90
18252;DHT22;26917;52.328;20.878;2022-09-13T01:11:23;7.50;99.90
18252;DHT22;26917;52.328;20.878;2022-09-13T01:14:19;7.30;99.90
18252;DHT22;26917;52.328;20.878;2022-09-13T01:16:59;7.30;99.90
18252;DHT22;26917;52.328;20.878;2022-09-13T01:19:56;7.30;99.90
18252;DHT22;26917;52.328;20.878;2022-09-13T01:33:51;7.30;99.90
18252;DHT22;26917;52.328;20.878;2022-09-13T01:38:26;7.20;99.90
18252;DHT22;26917;52.328;20.878;2022-09-13T01:46:48;7.20;99.90
18252;DHT22;26917;52.328;20.878;2022-09-13T02:02:42;6.90;99.90
18252;DHT22;26917;52.328;20.878;2022-09-13T05:59:01;7.50;99.90
18252;DHT22;26917;52.328;20.878;2022-09-13T06:06:00;7.60;99.90
18252;DHT22;26917;52.328;20.878;2022-09-13T06:10:02;7.80;99.90
18252;DHT22;26917;52.328;20.878;2022-09-13T06:12:35;8.30;99.90
18252;DHT22;26917;52.328;20.878;2022-09-13T06:18:46;8.40;99.90
18252;DHT22;26917;52.328;20.878;2022-09-13T06:21:17;8.40;99.90
18252;DHT22;26917;52.328;20.878;2022-09-13T06:23:53;8.40;99.90
18252;DHT22;26917;52.328;20.878;2022-09-13T06:26:27;8.50;99.90
18252;DHT22;26917;52.328;20.878;2022-09-13T06:28:57;8.50;99.90
18252;DHT22;26917;52.328;20.878;2022-09-13T06:31:27;8.60;99.90
18252;DHT22;26917;52.328;20.878;2022-09-13T06:33:59;8.60;99.90
18252;DHT22;26917;52.328;20.878;2022-09-13T06:36:29;8.60;99.90
18252;DHT22;26917;52.328;20.878;2022-09-13T06:38:58;8.90;99.90
18252;DHT22;26917;52.328;20.878;2022-09-13T06:41:36;9.40;99.90
18252;DHT22;26917;52.328;20.878;2022-09-13T06:44:04;10.40;99.90
18252;DHT22;26917;52.328;20.878;2022-09-13T06:46:34;10.70;99.90
18252;DHT22;26917;52.328;20.878;2022-09-13T06:49:10;11.20;99.90
18252;DHT22;26917;52.328;20.878;2022-09-13T06:52:02;11.50;99.90
18252;DHT22;26917;52.328;20.878;2022-09-13T06:54:40;11.30;99.90
18252;DHT22;26917;52.328;20.878;2022-09-13T06:57:11;11.10;99.90
18252;DHT22;26917;52.328;20.878;2022-09-13T06:59:40;11.50;99.90
18252;DHT22;26917;52.328;20.878;2022-09-13T07:02:29;11.70;99.90
18252;DHT22;26917;52.328;20.878;2022-09-13T07:05:05;11.60;99.90
18252;DHT22;26917;52.328;20.878;2022-09-13T07:07:50;11.40;99.90
18252;DHT22;26917;52.328;20.878;2022-09-13T07:10:23;11.30;99.90
18252;DHT22;26917;52.328;20.878;2022-09-13T07:12:52;11.20;99.90
18252;DHT22;26917;52.328;20.878;2022-09-13T07:15:26;11.20;99.90
18252;DHT22;26917;52.328;20.878;2022-09-13T07:18:10;11.20;99.90
18252;DHT22;26917;52.328;20.878;2022-09-13T07:20:41;11.20;99.90
18252;DHT22;26917;52.328;20.878;2022-09-13T07:23:11;11.20;99.90
18252;DHT22;26917;52.328;20.878;2022-09-13T07:25:41;11.40;99.90
18252;DHT22;26917;52.328;20.878;2022-09-13T07:28:12;11.40;99.90
18252;DHT22;26917;52.328;20.878;2022-09-13T07:30:44;11.50;99.90
18252;DHT22;26917;52.328;20.878;2022-09-13T07:33:13;11.60;99.90
18252;DHT22;26917;52.328;20.878;2022-09-13T07:36:06;11.80;99.90
18252;DHT22;26917;52.328;20.878;2022-09-13T07:38:39;11.80;99.90
18252;DHT22;26917;52.328;20.878;2022-09-13T07:41:12;12.00;99.90
18252;DHT22;26917;52.328;20.878;2022-09-13T07:43:41;12.00;99.90
18252;DHT22;26917;52.328;20.878;2022-09-13T07:46:12;12.10;99.90
18252;DHT22;26917;52.328;20.878;2022-09-13T07:48:42;12.30;99.90
18252;DHT22;26917;52.328;20.878;2022-09-13T07:51:14;12.40;99.90
18252;DHT22;26917;52.328;20.878;2022-09-13T07:53:44;12.50;99.90
18252;DHT22;26917;52.328;20.878;2022-09-13T07:56:16;12.70;99.90
18252;DHT22;26917;52.328;20.878;2022-09-13T07:59:16;12.80;99.90
18252;DHT22;26917;52.328;20.878;2022-09-13T08:01:46;13.00;99.90
18252;DHT22;26917;52.328;20.878;2022-09-13T08:04:39;13.10;99.90
18252;DHT22;26917;52.328;20.878;2022-09-13T08:07:10;13.20;99.90
18252;DHT22;26917;52.328;20.878;2022-09-13T08:09:45;13.40;99.90
18252;DHT22;26917;52.328;20.878;2022-09-13T08:12:14;13.50;99.90
18252;DHT22;26917;52.328;20.878;2022-09-13T08:15:00;13.70;99.90
18252;DHT22;26917;52.328;20.878;2022-09-13T08:17:49;14.00;99.90
18252;DHT22;26917;52.328;20.878;2022-09-13T08:20:54;14.40;99.90
18252;DHT22;26917;52.328;20.878;2022-09-13T08:28:04;14.90;99.90
18252;DHT22;26917;52.328;20.878;2022-09-13T08:31:06;14.90;99.90
18252;DHT22;26917;52.328;20.878;2022-09-13T08:34:00;14.90;99.90
18252;DHT22;26917;52.328;20.878;2022-09-13T08:37:35;14.90;99.90
18252;DHT22;26917;52.328;20.878;2022-09-13T08:40:26;15.20;99.90
18252;DHT22;26917;52.328;20.878;2022-09-13T08:54:03;16.40;99.90
18252;DHT22;26917;52.328;20.878;2022-09-13T08:57:14;16.60;99.90
18252;DHT22;26917;52.328;20.878;2022-09-13T09:00:21;16.70;99.90
18252;DHT22;26917;52.328;20.878;2022-09-13T09:03:20;16.70;99.90
18252;DHT22;26917;52.328;20.878;2022-09-13T09:06:18;16.70;99.90
18252;DHT22;26917;52.328;20.878;2022-09-13T09:21:37;16.70;99.90
18252;DHT22;26917;52.328;20.878;2022-09-13T09:25:13;16.90;99.90
18252;DHT22;26917;52.328;20.878;2022-09-13T09:28:08;17.10;99.90
18252;DHT22;26917;52.328;20.878;2022-09-13T09:30:44;17.10;99.90
18252;DHT22;26917;52.328;20.878;2022-09-13T09:33:39;17.20;99.90
18252;DHT22;26917;52.328;20.878;2022-09-13T09:40:12;17.20;99.90
18252;DHT22;26917;52.328;20.878;2022-09-13T09:43:29;17.20;99.90
18252;DHT22;26917;52.328;20.878;2022-09-13T09:46:26;17.20;99.90
18252;DHT22;26917;52.328;20.878;2022-09-13T09:49:04;17.40;99.90
18252;DHT22;26917;52.328;20.878;2022-09-13T09:52:13;17.50;99.90
18252;DHT22;26917;52.328;20.878;2022-09-13T09:55:29;17.70;99.90
18252;DHT22;26917;52.328;20.878;2022-09-13T09:58:02;17.80;99.90
18252;DHT22;26917;52.328;20.878;2022-09-13T10:00:39;17.90;99.90
18252;DHT22;26917;52.328;20.878;2022-09-13T10:04:05;18.10;99.90
18252;DHT22;26917;52.328;20.878;2022-09-13T10:06:50;18.20;99.90
18252;DHT22;26917;52.328;20.878;2022-09-13T10:22:27;17.90;99.90
18252;DHT22;26917;52.328;20.878;2022-09-13T10:25:33;18.00;99.90
18252;DHT22;26917;52.328;20.878;2022-09-13T10:29:50;18.00;99.90
18252;DHT22;26917;52.328;20.878;2022-09-13T10:32:17;18.10;99.90
18252;DHT22;26917;52.328;20.878;2022-09-13T10:35:19;18.10;99.90
18252;DHT22;26917;52.328;20.878;2022-09-13T10:37:56;18.20;99.90
18252;DHT22;26917;52.328;20.878;2022-09-13T10:41:21;18.30;99.90
18252;DHT22;26917;52.328;20.878;2022-09-13T10:47:21;18.70;99.90
18252;DHT22;26917;52.328;20.878;2022-09-13T10:50:19;18.70;99.90
18252;DHT22;26917;52.328;20.878;2022-09-13T10:52:57;18.80;97.70
18252;DHT22;26917;52.328;20.878;2022-09-13T10:56:18;18.90;98.40
18252;DHT22;26917;52.328;20.878;2022-09-13T11:00:05;18.80;98.20
18252;DHT22;26917;52.328;20.878;2022-09-13T11:03:19;18.90;99.20
18252;DHT22;26917;52.328;20.878;2022-09-13T11:06:23;19.00;99.60
18252;DHT22;26917;52.328;20.878;2022-09-13T11:15:52;18.80;99.00
18252;DHT22;26917;52.328;20.878;2022-09-13T11:18:52;18.80;99.90
18252;DHT22;26917;52.328;20.878;2022-09-13T11:22:05;18.60;99.90
18252;DHT22;26917;52.328;20.878;2022-09-13T11:28:37;18.50;99.90
18252;DHT22;26917;52.328;20.878;2022-09-13T11:31:51;18.60;99.90
18252;DHT22;26917;52.328;20.878;2022-09-13T11:38:04;18.80;98.80
18252;DHT22;26917;52.328;20.878;2022-09-13T11:40:42;18.80;99.90
18252;DHT22;26917;52.328;20.878;2022-09-13T11:43:42;18.80;99.90
18252;DHT22;26917;52.328;20.878;2022-09-13T11:47:06;18.80;99.90
18252;DHT22;26917;52.328;20.878;2022-09-13T11:49:57;18.80;99.90
18252;DHT22;26917;52.328;20.878;2022-09-13T11:53:06;18.90;99.90
18252;DHT22;26917;52.328;20.878;2022-09-13T11:56:54;18.80;99.90
18252;DHT22;26917;52.328;20.878;2022-09-13T11:59:56;18.90;99.90
18252;DHT22;26917;52.328;20.878;2022-09-13T12:03:14;19.00;99.90
18252;DHT22;26917;52.328;20.878;2022-09-13T12:05:46;19.00;99.90
18252;DHT22;26917;52.328;20.878;2022-09-13T12:08:19;19.10;99.90
18252;DHT22;26917;52.328;20.878;2022-09-13T12:11:00;19.00;99.90
18252;DHT22;26917;52.328;20.878;2022-09-13T12:13:50;19.00;99.90
18252;DHT22;26917;52.328;20.878;2022-09-13T12:17:16;18.90;99.90
18252;DHT22;26917;52.328;20.878;2022-09-13T12:19:52;18.70;99.90
18252;DHT22;26917;52.328;20.878;2022-09-13T12:22:32;18.60;99.90
18252;DHT22;26917;52.328;20.878;2022-09-13T12:25:04;18.60;99.90
18252;DHT22;26917;52.328;20.878;2022-09-13T12:27:38;18.50;99.90
18252;DHT22;26917;52.328;20.878;2022-09-13T12:30:14;18.40;99.90
18252;DHT22;26917;52.328;20.878;2022-09-13T12:33:00;18.30;99.90
18252;DHT22;26917;52.328;20.878;2022-09-13T12:35:39;18.20;99.90
18252;DHT22;26917;52.328;20.878;2022-09-13T12:38:21;18.00;99.90
18252;DHT22;26917;52.328;20.878;2022-09-13T12:41:04;18.00;99.90
18252;DHT22;26917;52.328;20.878;2022-09-13T12:44:04;17.80;99.90
18252;DHT22;26917;52.328;20.878;2022-09-13T12:46:55;17.80;99.90
18252;DHT22;26917;52.328;20.878;2022-09-13T12:49:41;17.70;99.90
18252;DHT22;26917;52.328;20.878;2022-09-13T12:52:30;17.80;99.90
18252;DHT22;26917;52.328;20.878;2022-09-13T12:55:32;17.70;99.90
18252;DHT22;26917;52.328;20.878;2022-09-13T12:58:40;17.70;99.90
18252;DHT22;26917;52.328;20.878;2022-09-13T13:01:21;17.60;99.90
18252;DHT22;26917;52.328;20.878;2022-09-13T13:03:53;17.60;99.90
18252;DHT22;26917;52.328;20.878;2022-09-13T13:06:31;17.50;99.90
18252;DHT22;26917;52.328;20.878;2022-09-13T13:09:03;17.50;99.90
18252;DHT22;26917;52.328;20.878;2022-09-13T13:11:44;17.40;99.90
18252;DHT22;26917;52.328;20.878;2022-09-13T13:14:45;17.40;99.90
18252;DHT22;26917;52.328;20.878;2022-09-13T13:17:44;17.20;99.90
18252;DHT22;26917;52.328;20.878;2022-09-13T13:20:38;17.10;99.90
18252;DHT22;26917;52.328;20.878;2022-09-13T13:23:25;17.00;99.90
18252;DHT22;26917;52.328;20.878;2022-09-13T13:26:05;16.90;99.90
18252;DHT22;26917;52.328;20.878;2022-09-13T13:31:38;16.90;99.90
18252;DHT22;26917;52.328;20.878;2022-09-13T13:37:36;17.00;99.90
18252;DHT22;26917;52.328;20.878;2022-09-13T13:40:35;17.10;99.90
18252;DHT22;26917;52.328;20.878;2022-09-13T13:43:29;17.10;99.90
18252;DHT22;26917;52.328;20.878;2022-09-13T13:46:28;17.10;99.90
18252;DHT22;26917;52.328;20.878;2022-09-13T13:52:33;17.10;99.90
18252;DHT22;26917;52.328;20.878;2022-09-13T13:55:29;17.10;99.90
18252;DHT22;26917;52.328;20.878;2022-09-13T13:58:01;17.10;99.90
18252;DHT22;26917;52.328;20.878;2022-09-13T14:00:32;17.00;99.90
18252;DHT22;26917;52.328;20.878;2022-09-13T14:03:10;17.00;99.90
18252;DHT22;26917;52.328;20.878;2022-09-13T14:05:47;17.00;99.90
18252;DHT22;26917;52.328;20.878;2022-09-13T14:08:52;17.00;99.90
18252;DHT22;26917;52.328;20.878;2022-09-13T14:11:40;17.00;99.90
18252;DHT22;26917;52.328;20.878;2022-09-13T14:14:41;17.10;99.90
18252;DHT22;26917;52.328;20.878;2022-09-13T14:21:00;17.00;99.90
18252;DHT22;26917;52.328;20.878;2022-09-13T14:23:29;17.00;99.90
18252;DHT22;26917;52.328;20.878;2022-09-13T14:25:59;17.00;99.90
18252;DHT22;26917;52.328;20.878;2022-09-13T14:28:31;17.00;99.90
18252;DHT22;26917;52.328;20.878;2022-09-13T14:31:00;17.00;99.90
18252;DHT22;26917;52.328;20.878;2022-09-13T14:33:31;17.10;99.90
18252;DHT22;26917;52.328;20.878;2022-09-13T14:36:03;17.20;99.90
18252;DHT22;26917;52.328;20.878;2022-09-13T14:38:34;17.20;99.90
18252;DHT22;26917;52.328;20.878;2022-09-13T14:41:12;17.20;99.90
18252;DHT22;26917;52.328;20.878;2022-09-13T14:47:07;17.10;99.90
18252;DHT22;26917;52.328;20.878;2022-09-13T14:49:42;17.10;99.90
18252;DHT22;26917;52.328;20.878;2022-09-13T14:52:21;17.00;99.90
18252;DHT22;26917;52.328;20.878;2022-09-13T14:54:54;17.00;99.90
18252;DHT22;26917;52.328;20.878;2022-09-13T14:57:28;17.00;99.90
18252;DHT22;26917;52.328;20.878;2022-09-13T15:00:02;16.90;99.90
18252;DHT22;26917;52.328;20.878;2022-09-13T15:02:48;16.90;99.90
18252;DHT22;26917;52.328;20.878;2022-09-13T15:05:21;16.90;99.90
18252;DHT22;26917;52.328;20.878;2022-09-13T15:07:50;16.90;99.90
18252;DHT22;26917;52.328;20.878;2022-09-13T15:10:22;16.80;99.90
18252;DHT22;26917;52.328;20.878;2022-09-13T15:12:54;16.70;99.90
18252;DHT22;26917;52.328;20.878;2022-09-13T15:15:34;16.70;99.90
18252;DHT22;26917;52.328;20.878;2022-09-13T15:18:06;16.60;99.90
18252;DHT22;26917;52.328;20.878;2022-09-13T15:20:51;16.60;99.90
18252;DHT22;26917;52.328;20.878;2022-09-13T15:23:23;16.50;99.90
18252;DHT22;26917;52.328;20.878;2022-09-13T15:25:56;16.50;99.90
18252;DHT22;26917;52.328;20.878;2022-09-13T15:28:28;16.50;99.90
18252;DHT22;26917;52.328;20.878;2022-09-13T15:30:59;16.40;99.90
18252;DHT22;26917;52.328;20.878;2022-09-13T15:33:31;16.30;99.90
18252;DHT22;26917;52.328;20.878;2022-09-13T15:36:26;16.30;99.90
18252;DHT22;26917;52.328;20.878;2022-09-13T15:38:58;16.30;99.90
18252;DHT22;26917;52.328;20.878;2022-09-13T15:41:29;16.30;99.90
18252;DHT22;26917;52.328;20.878;2022-09-13T15:43:59;16.20;99.90
18252;DHT22;26917;52.328;20.878;2022-09-13T15:46:28;16.10;99.90
18252;DHT22;26917;52.328;20.878;2022-09-13T15:49:14;16.10;99.90
18252;DHT22;26917;52.328;20.878;2022-09-13T15:51:43;16.00;99.90
18252;DHT22;26917;52.328;20.878;2022-09-13T15:54:14;16.00;99.90
18252;DHT22;26917;52.328;20.878;2022-09-13T15:56:45;15.90;99.90
18252;DHT22;26917;52.328;20.878;2022-09-13T15:59:18;15.90;99.90
18252;DHT22;26917;52.328;20.878;2022-09-13T16:01:51;15.80;99.90
18252;DHT22;26917;52.328;20.878;2022-09-13T16:04:21;15.80;99.90
18252;DHT22;26917;52.328;20.878;2022-09-13T16:06:49;15.80;99.90
18252;DHT22;26917;52.328;20.878;2022-09-13T16:09:19;15.70;99.90
18252;DHT22;26917;52.328;20.878;2022-09-13T16:11:50;15.70;99.90
18252;DHT22;26917;52.328;20.878;2022-09-13T16:14:19;15.70;99.90
18252;DHT22;26917;52.328;20.878;2022-09-13T16:16:48;15.60;99.90
18252;DHT22;26917;52.328;20.878;2022-09-13T16:19:19;15.60;99.90
18252;DHT22;26917;52.328;20.878;2022-09-13T16:21:50;15.50;99.90
18252;DHT22;26917;52.328;20.878;2022-09-13T16:24:18;15.50;99.90
18252;DHT22;26917;52.328;20.878;2022-09-13T16:26:47;15.50;99.90
18252;DHT22;26917;52.328;20.878;2022-09-13T16:29:15;15.50;99.90
18252;DHT22;26917;52.328;20.878;2022-09-13T16:31:44;15.40;99.90
18252;DHT22;26917;52.328;20.878;2022-09-13T16:34:12;15.40;99.90
18252;DHT22;26917;52.328;20.878;2022-09-13T16:36:41;15.40;99.90
18252;DHT22;26917;52.328;20.878;2022-09-13T16:39:11;15.30;99.90
18252;DHT22;26917;52.328;20.878;2022-09-13T16:41:40;15.40;99.90
18252;DHT22;26917;52.328;20.878;2022-09-13T16:44:08;15.30;99.90
18252;DHT22;26917;52.328;20.878;2022-09-13T16:46:37;15.30;99.90
18252;DHT22;26917;52.328;20.878;2022-09-13T16:49:06;15.30;99.90
18252;DHT22;26917;52.328;20.878;2022-09-13T16:51:35;15.30;99.90
18252;DHT22;26917;52.328;20.878;2022-09-13T16:54:04;15.30;99.90
18252;DHT22;26917;52.328;20.878;2022-09-13T16:56:49;15.30;99.90
18252;DHT22;26917;52.328;20.878;2022-09-13T16:59:17;15.20;99.90
18252;DHT22;26917;52.328;20.878;2022-09-13T17:01:46;15.20;99.90
18252;DHT22;26917;52.328;20.878;2022-09-13T17:04:15;15.20;99.90
18252;DHT22;26917;52.328;20.878;2022-09-13T17:06:44;15.10;99.90
18252;DHT22;26917;52.328;20.878;2022-09-13T17:09:12;15.10;99.90
18252;DHT22;26917;52.328;20.878;2022-09-13T17:11:42;15.10;99.90
18252;DHT22;26917;52.328;20.878;2022-09-13T17:14:13;15.10;99.90
18252;DHT22;26917;52.328;20.878;2022-09-13T17:16:45;15.10;99.90
18252;DHT22;26917;52.328;20.878;2022-09-13T17:19:16;15.10;99.90
18252;DHT22;26917;52.328;20.878;2022-09-13T17:21:46;15.10;99.90
18252;DHT22;26917;52.328;20.878;2022-09-13T17:24:15;15.10;99.90
18252;DHT22;26917;52.328;20.878;2022-09-13T17:26:44;15.00;99.90
18252;DHT22;26917;52.328;20.878;2022-09-13T17:29:30;15.00;99.90
18252;DHT22;26917;52.328;20.878;2022-09-13T17:31:59;15.00;99.90
18252;DHT22;26917;52.328;20.878;2022-09-13T17:34:28;15.10;99.90
18252;DHT22;26917;52.328;20.878;2022-09-13T17:36:58;15.00;99.90
18252;DHT22;26917;52.328;20.878;2022-09-13T17:39:26;15.00;99.90
18252;DHT22;26917;52.328;20.878;2022-09-13T17:41:55;15.10;99.90
18252;DHT22;26917;52.328;20.878;2022-09-13T17:44:24;15.00;99.90
18252;DHT22;26917;52.328;20.878;2022-09-13T17:46:54;15.00;99.90
18252;DHT22;26917;52.328;20.878;2022-09-13T17:49:22;14.90;99.90
18252;DHT22;26917;52.328;20.878;2022-09-13T17:51:50;14.90;99.90
18252;DHT22;26917;52.328;20.878;2022-09-13T17:54:20;14.90;99.90
18252;DHT22;26917;52.328;20.878;2022-09-13T17:56:49;14.90;99.90
18252;DHT22;26917;52.328;20.878;2022-09-13T17:59:20;14.90;99.90
18252;DHT22;26917;52.328;20.878;2022-09-13T18:01:50;14.90;99.90
18252;DHT22;26917;52.328;20.878;2022-09-13T18:04:36;14.90;99.90
18252;DHT22;26917;52.328;20.878;2022-09-13T18:07:04;14.90;99.90
18252;DHT22;26917;52.328;20.878;2022-09-13T18:09:33;14.90;99.90
18252;DHT22;26917;52.328;20.878;2022-09-13T18:12:02;14.90;99.90
18252;DHT22;26917;52.328;20.878;2022-09-13T18:14:30;14.90;99.90
18252;DHT22;26917;52.328;20.878;2022-09-13T18:16:59;14.90;99.90
18252;DHT22;26917;52.328;20.878;2022-09-13T18:19:27;14.90;99.90
18252;DHT22;26917;52.328;20.878;2022-09-13T18:22:15;14.90;99.90
18252;DHT22;26917;52.328;20.878;2022-09-13T18:24:43;14.90;99.90
18252;DHT22;26917;52.328;20.878;2022-09-13T18:27:12;14.90;99.90
18252;DHT22;26917;52.328;20.878;2022-09-13T18:29:41;14.90;99.90
18252;DHT22;26917;52.328;20.878;2022-09-13T18:32:09;14.90;99.90
18252;DHT22;26917;52.328;20.878;2022-09-13T18:34:38;14.90;99.90
18252;DHT22;26917;52.328;20.878;2022-09-13T18:37:08;14.90;99.90
18252;DHT22;26917;52.328;20.878;2022-09-13T18:39:37;14.90;99.90
18252;DHT22;26917;52.328;20.878;2022-09-13T18:42:06;14.80;99.90
18252;DHT22;26917;52.328;20.878;2022-09-13T18:44:34;14.80;99.90
18252;DHT22;26917;52.328;20.878;2022-09-13T18:47:03;14.80;99.90
18252;DHT22;26917;52.328;20.878;2022-09-13T18:49:31;14.80;99.90
18252;DHT22;26917;52.328;20.878;2022-09-13T18:52:00;14.80;99.90
18252;DHT22;26917;52.328;20.878;2022-09-13T18:54:28;14.80;99.90
18252;DHT22;26917;52.328;20.878;2022-09-13T18:56:59;14.80;99.90
18252;DHT22;26917;52.328;20.878;2022-09-13T18:59:29;14.80;99.90
18252;DHT22;26917;52.328;20.878;2022-09-13T19:01:59;14.80;99.90
18252;DHT22;26917;52.328;20.878;2022-09-13T19:04:27;14.80;99.90
18252;DHT22;26917;52.328;20.878;2022-09-13T19:06:57;14.80;99.90
18252;DHT22;26917;52.328;20.878;2022-09-13T19:09:28;14.80;99.90
18252;DHT22;26917;52.328;20.878;2022-09-13T19:11:58;14.80;99.90
18252;DHT22;26917;52.328;20.878;2022-09-13T19:14:27;14.80;99.90
18252;DHT22;26917;52.328;20.878;2022-09-13T19:16:58;14.80;99.90
18252;DHT22;26917;52.328;20.878;2022-09-13T19:19:28;14.80;99.90
18252;DHT22;26917;52.328;20.878;2022-09-13T19:21:58;14.80;99.90
18252;DHT22;26917;52.328;20.878;2022-09-13T19:24:26;14.80;99.90
18252;DHT22;26917;52.328;20.878;2022-09-13T19:26:54;14.80;99.90
18252;DHT22;26917;52.328;20.878;2022-09-13T19:29:29;14.80;99.90
18252;DHT22;26917;52.328;20.878;2022-09-13T19:31:58;14.80;99.90
18252;DHT22;26917;52.328;20.878;2022-09-13T19:34:26;14.80;99.90
18252;DHT22;26917;52.328;20.878;2022-09-13T19:36:54;14.80;99.90
18252;DHT22;26917;52.328;20.878;2022-09-13T19:39:25;14.80;99.90
18252;DHT22;26917;52.328;20.878;2022-09-13T19:41:56;14.80;99.90
18252;DHT22;26917;52.328;20.878;2022-09-13T19:44:26;14.80;99.90
18252;DHT22;26917;52.328;20.878;2022-09-13T19:46:56;14.80;99.90
18252;DHT22;26917;52.328;20.878;2022-09-13T19:49:44;14.70;99.90
18252;DHT22;26917;52.328;20.878;2022-09-13T19:52:15;14.70;99.90
18252;DHT22;26917;52.328;20.878;2022-09-13T19:54:44;14.70;99.90
18252;DHT22;26917;52.328;20.878;2022-09-13T19:57:12;14.70;99.90
18252;DHT22;26917;52.328;20.878;2022-09-13T19:59:44;14.70;99.90
18252;DHT22;26917;52.328;20.878;2022-09-13T20:02:14;14.70;99.90
18252;DHT22;26917;52.328;20.878;2022-09-13T20:04:44;14.70;99.90
18252;DHT22;26917;52.328;20.878;2022-09-13T20:07:13;14.70;99.90
18252;DHT22;26917;52.328;20.878;2022-09-13T20:09:41;14.70;99.90
18252;DHT22;26917;52.328;20.878;2022-09-13T20:12:13;14.80;99.90
18252;DHT22;26917;52.328;20.878;2022-09-13T20:14:41;14.80;99.90
18252;DHT22;26917;52.328;20.878;2022-09-13T20:17:09;14.80;99.90
18252;DHT22;26917;52.328;20.878;2022-09-13T20:19:39;14.80;99.90
18252;DHT22;26917;52.328;20.878;2022-09-13T20:22:15;14.80;99.90
18252;DHT22;26917;52.328;20.878;2022-09-13T20:24:44;14.80;99.90
18252;DHT22;26917;52.328;20.878;2022-09-13T20:27:12;14.80;99.90
18252;DHT22;26917;52.328;20.878;2022-09-13T20:29:41;14.70;99.90
18252;DHT22;26917;52.328;20.878;2022-09-13T20:32:09;14.70;99.90
18252;DHT22;26917;52.328;20.878;2022-09-13T20:34:55;14.70;99.90
18252;DHT22;26917;52.328;20.878;2022-09-13T20:37:23;14.70;99.90
18252;DHT22;26917;52.328;20.878;2022-09-13T20:39:52;14.80;99.90
18252;DHT22;26917;52.328;20.878;2022-09-13T20:42:22;14.80;99.90
18252;DHT22;26917;52.328;20.878;2022-09-13T20:44:50;14.80;99.90
18252;DHT22;26917;52.328;20.878;2022-09-13T20:47:18;14.80;99.90
18252;DHT22;26917;52.328;20.878;2022-09-13T20:49:47;14.80;99.90
18252;DHT22;26917;52.328;20.878;2022-09-13T20:52:17;14.80;99.90
18252;DHT22;26917;52.328;20.878;2022-09-13T20:54:45;14.80;99.90
18252;DHT22;26917;52.328;20.878;2022-09-13T20:57:14;14.80;99.90
18252;DHT22;26917;52.328;20.878;2022-09-13T20:59:43;14.80;99.90
18252;DHT22;26917;52.328;20.878;2022-09-13T21:02:12;14.80;99.90
18252;DHT22;26917;52.328;20.878;2022-09-13T21:04:41;14.80;99.90
18252;DHT22;26917;52.328;20.878;2022-09-13T21:07:10;14.80;99.90
18252;DHT22;26917;52.328;20.878;2022-09-13T21:09:57;14.90;99.90
18252;DHT22;26917;52.328;20.878;2022-09-13T21:12:26;14.90;99.90
18252;DHT22;26917;52.328;20.878;2022-09-13T21:14:54;14.90;99.90
18252;DHT22;26917;52.328;20.878;2022-09-13T21:17:23;14.90;99.90
18252;DHT22;26917;52.328;20.878;2022-09-13T21:19:52;15.00;99.90
18252;DHT22;26917;52.328;20.878;2022-09-13T21:22:20;15.00;99.90
18252;DHT22;26917;52.328;20.878;2022-09-13T21:24:49;15.00;99.90
18252;DHT22;26917;52.328;20.878;2022-09-13T21:27:28;15.10;99.90
18252;DHT22;26917;52.328;20.878;2022-09-13T21:29:56;15.10;99.90
18252;DHT22;26917;52.328;20.878;2022-09-13T21:32:25;15.10;99.90
18252;DHT22;26917;52.328;20.878;2022-09-13T21:34:53;15.10;99.90
18252;DHT22;26917;52.328;20.878;2022-09-13T21:37:22;15.10;99.90
18252;DHT22;26917;52.328;20.878;2022-09-13T21:39:50;15.00;99.90
18252;DHT22;26917;52.328;20.878;2022-09-13T21:42:20;15.00;99.90
18252;DHT22;26917;52.328;20.878;2022-09-13T21:44:48;14.90;99.90
18252;DHT22;26917;52.328;20.878;2022-09-13T21:47:17;14.90;99.90
18252;DHT22;26917;52.328;20.878;2022-09-13T21:49:45;14.90;99.90
18252;DHT22;26917;52.328;20.878;2022-09-13T21:52:13;14.90;99.90
18252;DHT22;26917;52.328;20.878;2022-09-13T21:54:42;14.80;99.90
18252;DHT22;26917;52.328;20.878;2022-09-13T21:57:11;14.80;99.90
18252;DHT22;26917;52.328;20.878;2022-09-13T21:59:56;14.80;99.90
18252;DHT22;26917;52.328;20.878;2022-09-13T22:02:24;14.80;99.90
18252;DHT22;26917;52.328;20.878;2022-09-13T22:04:54;14.80;99.90
18252;DHT22;26917;52.328;20.878;2022-09-13T22:07:22;14.80;99.90
18252;DHT22;26917;52.328;20.878;2022-09-13T22:09:50;14.80;99.90
18252;DHT22;26917;52.328;20.878;2022-09-13T22:12:19;14.80;99.90
18252;DHT22;26917;52.328;20.878;2022-09-13T22:14:49;14.70;99.90
18252;DHT22;26917;52.328;20.878;2022-09-13T22:17:37;14.70;99.90
18252;DHT22;26917;52.328;20.878;2022-09-13T22:20:09;14.70;99.90
18252;DHT22;26917;52.328;20.878;2022-09-13T22:26:19;14.80;99.90